Time;durP1;ratioP1;P1;durP2;ratioP2;P2;SDS_P1;SDS_P2;PMS_P1;PMS_P2;Temp;Humidity;BMP_temperature;BMP_pressure;BME280_temperature;BME280_humidity;BME280_pressure;Samples;Min_cycle;Max_cycle;Signal;HPM_P1;HPM_P2
2022/10/02 00:01:06;;;;;;;;;;;;;;;19.76;59.60;99210.81;2054403;28;19930;-53
2022/10/02 00:02:10;;;;;;;;;;;;;;;19.77;59.95;99212.44;2053765;28;20566;-49
2022/10/02 00:03:17;;;;;;;;;;;;;;;19.76;59.96;99204.59;2055488;28;19926;-50
2022/10/02 00:04:20;;;;;;;;;;;;;;;19.77;59.73;99206.25;2052881;28;19934;-50
2022/10/02 00:05:24;;;;;;;;;;;;;;;19.77;59.54;99201.69;2053371;28;19922;-49
2022/10/02 00:06:27;;;;;;;;;;;;;;;19.78;59.72;99205.19;2050327;28;19922;-51
2022/10/02 00:07:31;;;;;;;;;;;;;;;19.78;59.52;99214.13;2054018;28;19933;-51
2022/10/02 00:08:34;;;;;;;;;;;;;;;19.78;59.70;99219.53;2052869;28;19926;-50
2022/10/02 00:09:38;;;;;;;;;;;;;;;19.78;59.76;99224.03;2058065;28;19933;-49
2022/10/02 00:10:43;;;;;;;;;;;;;;;19.78;59.64;99232.13;2053992;28;19968;-52
2022/10/02 00:11:47;;;;;;;;;;;;;;;19.78;59.77;99226.75;2054068;28;19955;-49
2022/10/02 00:12:49;;;;;;;;;;;;;;;19.77;59.85;99231.28;2056355;28;19972;-47
2022/10/02 00:13:53;;;;;;;;;;;;;;;19.77;59.75;99231.28;2052424;28;20687;-50
2022/10/02 00:14:58;;;;;;;;;;;;;;;19.78;59.83;99229.44;2050438;28;19952;-53
2022/10/02 00:16:02;;;;;;;;;;;;;;;19.77;59.75;99236.69;2051760;28;19926;-52
2022/10/02 00:17:03;;;;;;;;;;;;;;;19.77;59.90;99233.97;2052345;28;19980;-52
2022/10/02 00:18:09;;;;;;;;;;;;;;;19.78;59.95;99246.44;2054274;28;20316;-52
2022/10/02 00:19:14;;;;;;;;;;;;;;;19.77;59.71;99247.44;2051223;28;20507;-50
2022/10/02 00:20:17;;;;;;;;;;;;;;;19.76;59.89;99243.09;2053340;28;19933;-50
2022/10/02 00:21:27;;;;;;;;;;;;;;;19.77;59.88;99247.44;2053041;28;20249;-55
2022/10/02 00:22:32;;;;;;;;;;;;;;;19.76;59.83;99244.97;2055088;28;19933;-49
2022/10/02 00:23:36;;;;;;;;;;;;;;;19.77;60.00;99244.75;2057126;28;19926;-48
2022/10/02 00:24:39;;;;;;;;;;;;;;;19.77;59.90;99250.13;2053267;28;19928;-51
2022/10/02 00:25:44;;;;;;;;;;;;;;;19.77;60.00;99250.13;2053332;28;19961;-55
2022/10/02 00:26:48;;;;;;;;;;;;;;;19.76;59.80;99244.97;2053130;28;20025;-50
2022/10/02 00:27:58;;;;;;;;;;;;;;;19.77;59.45;99258.22;2051701;28;20463;-51
2022/10/02 00:29:04;;;;;;;;;;;;;;;19.76;59.67;99253.88;2053518;28;19926;-51
2022/10/02 00:30:05;;;;;;;;;;;;;;;19.77;59.60;99258.22;2054005;28;19922;-50
2022/10/02 00:31:19;;;;;;;;;;;;;;;19.76;59.57;99258.41;2053529;28;19926;-51
2022/10/02 00:32:23;;;;;;;;;;;;;;;19.77;59.67;99265.47;2053322;28;19929;-51
2022/10/02 00:33:28;;;;;;;;;;;;;;;19.77;59.66;99260.91;2052317;28;19926;-54
2022/10/02 00:34:33;;;;;;;;;;;;;;;19.77;59.83;99260.06;2056222;28;19938;-51
2022/10/02 00:35:47;;;;;;;;;;;;;;;19.75;59.72;99257.59;2055098;28;19926;-53
2022/10/02 00:36:51;;;;;;;;;;;;;;;19.78;59.95;99257.19;2052191;28;19922;-50
2022/10/02 00:37:55;;;;;;;;;;;;;;;19.77;59.66;99252.00;2056480;28;20016;-53
2022/10/02 00:39:00;;;;;;;;;;;;;;;19.76;59.90;99242.28;2055291;28;19935;-50
2022/10/02 00:40:09;;;;;;;;;;;;;;;19.74;59.97;99245.16;2058165;28;19922;-50
2022/10/02 00:41:21;;;;;;;;;;;;;;;19.74;59.97;99239.75;2055127;28;19926;-50
2022/10/02 00:42:43;;;;;;;;;;;;;;;19.74;59.52;99249.69;2053375;28;19988;-48
2022/10/02 00:43:51;;;;;;;;;;;;;;;19.76;59.79;99242.28;2053745;28;19932;-48
2022/10/02 00:45:00;;;;;;;;;;;;;;;19.75;59.91;99244.13;2055426;28;19933;-49
2022/10/02 00:46:09;;;;;;;;;;;;;;;19.77;59.71;99250.13;2052317;28;19926;-53
2022/10/02 00:47:15;;;;;;;;;;;;;;;19.75;59.64;99252.22;2052895;28;20051;-55
2022/10/02 00:48:27;;;;;;;;;;;;;;;19.74;60.01;99253.22;2053413;28;19954;-51
2022/10/02 00:49:48;;;;;;;;;;;;;;;19.76;59.86;99253.03;2053565;28;20360;-52
2022/10/02 00:50:57;;;;;;;;;;;;;;;19.76;59.44;99263.81;2052651;28;20899;-54
2022/10/02 00:52:04;;;;;;;;;;;;;;;19.76;59.59;99255.72;2053646;28;19925;-49
2022/10/02 00:53:12;;;;;;;;;;;;;;;19.75;59.60;99256.75;2058027;28;19946;-50
2022/10/02 00:54:19;;;;;;;;;;;;;;;19.75;59.85;99260.28;2053230;28;20000;-52
2022/10/02 00:55:31;;;;;;;;;;;;;;;19.75;59.77;99246.84;2055426;28;19937;-53
2022/10/02 00:56:33;;;;;;;;;;;;;;;19.75;59.50;99248.66;2052612;28;20602;-49
2022/10/02 00:57:41;;;;;;;;;;;;;;;19.75;59.79;99241.44;2053681;28;20029;-47
2022/10/02 00:58:59;;;;;;;;;;;;;;;19.75;59.65;99241.44;2055564;28;20338;-52
2022/10/02 01:00:04;;;;;;;;;;;;;;;19.74;59.62;99238.94;2049908;28;19930;-53
2022/10/02 01:01:10;;;;;;;;;;;;;;;19.75;59.68;99237.91;2053355;28;20327;-55
2022/10/02 01:02:14;;;;;;;;;;;;;;;19.74;60.09;99238.94;2055283;28;19948;-52
2022/10/02 01:03:16;;;;;;;;;;;;;;;19.75;59.89;99249.53;2052778;28;19976;-53
2022/10/02 01:04:20;;;;;;;;;;;;;;;19.74;59.54;99244.31;2051665;28;19926;-55
2022/10/02 01:05:21;;;;;;;;;;;;;;;19.74;59.71;99245.16;2052792;28;21157;-51
2022/10/02 01:06:25;;;;;;;;;;;;;;;19.74;59.59;99245.16;2052426;28;19961;-49
2022/10/02 01:07:26;;;;;;;;;;;;;;;19.74;59.74;99245.16;2056999;28;20003;-51
2022/10/02 01:08:28;;;;;;;;;;;;;;;19.74;59.74;99247.00;2054105;28;19926;-53
2022/10/02 01:09:28;;;;;;;;;;;;;;;19.74;59.71;99247.84;2053728;28;20604;-53
2022/10/02 01:10:30;;;;;;;;;;;;;;;19.73;59.63;99245.34;2052581;28;19929;-50
2022/10/02 01:11:32;;;;;;;;;;;;;;;19.75;59.75;99254.91;2053375;28;20219;-50
2022/10/02 01:12:33;;;;;;;;;;;;;;;19.74;59.80;99249.69;2052706;28;20519;-52
2022/10/02 01:13:34;;;;;;;;;;;;;;;19.74;59.99;99255.91;2049666;28;20423;-51
2022/10/02 01:14:36;;;;;;;;;;;;;;;19.73;59.92;99251.56;2055083;28;19955;-53
2022/10/02 01:15:39;;;;;;;;;;;;;;;19.74;59.63;99250.53;2051665;28;20473;-54
2022/10/02 01:16:41;;;;;;;;;;;;;;;19.74;59.96;99247.84;2052894;28;19922;-55
2022/10/02 01:17:42;;;;;;;;;;;;;;;19.73;59.93;99243.50;2050718;28;19930;-49
2022/10/02 01:18:44;;;;;;;;;;;;;;;19.74;59.96;99241.63;2055165;28;20029;-51
2022/10/02 01:19:45;;;;;;;;;;;;;;;19.74;59.49;99247.00;2052053;28;19959;-54
2022/10/02 01:20:48;;;;;;;;;;;;;;;19.74;59.65;99242.47;2054929;28;19968;-52
2022/10/02 01:21:52;;;;;;;;;;;;;;;19.73;59.93;99243.50;2054941;28;19926;-52
2022/10/02 01:22:58;;;;;;;;;;;;;;;19.74;59.75;99249.69;2058017;28;19922;-53
2022/10/02 01:24:02;;;;;;;;;;;;;;;19.73;59.90;99243.50;2055227;28;19968;-51
2022/10/02 01:25:06;;;;;;;;;;;;;;;19.73;59.99;99254.25;2055022;28;20299;-51
2022/10/02 01:26:07;;;;;;;;;;;;;;;19.74;60.01;99245.16;2052992;28;19938;-50
2022/10/02 01:27:09;;;;;;;;;;;;;;;19.74;59.93;99244.31;2056317;28;19948;-55
2022/10/02 01:28:10;;;;;;;;;;;;;;;19.73;59.96;99246.19;2056463;28;19933;-52
2022/10/02 01:29:12;;;;;;;;;;;;;;;19.73;59.81;99242.66;2055716;28;19929;-50
2022/10/02 01:30:14;;;;;;;;;;;;;;;19.72;60.00;99241.81;2056085;28;19932;-52
2022/10/02 01:31:16;;;;;;;;;;;;;;;19.73;59.68;99251.56;2055136;28;19923;-54
2022/10/02 01:32:17;;;;;;;;;;;;;;;19.73;59.85;99250.75;2054067;28;19997;-49
2022/10/02 01:33:19;;;;;;;;;;;;;;;19.72;59.78;99249.06;2055345;28;19922;-50
2022/10/02 01:34:20;;;;;;;;;;;;;;;19.72;59.76;99244.50;2054118;28;19953;-49
2022/10/02 01:35:23;;;;;;;;;;;;;;;19.72;59.87;99244.50;2056746;28;20308;-49
2022/10/02 01:36:24;;;;;;;;;;;;;;;19.72;59.67;99247.19;2054000;28;19992;-50
2022/10/02 01:37:29;;;;;;;;;;;;;;;19.74;59.89;99245.16;2054796;28;19926;-52
2022/10/02 01:38:30;;;;;;;;;;;;;;;19.74;59.75;99244.31;2054677;28;19930;-50
2022/10/02 01:39:32;;;;;;;;;;;;;;;19.73;59.78;99246.19;2056271;28;19933;-51
2022/10/02 01:40:35;;;;;;;;;;;;;;;19.72;59.85;99241.81;2054673;28;19929;-55
2022/10/02 01:41:40;;;;;;;;;;;;;;;19.74;59.85;99242.47;2059046;28;19976;-50
2022/10/02 01:42:40;;;;;;;;;;;;;;;19.73;59.92;99234.59;2054997;28;19933;-53
2022/10/02 01:43:44;;;;;;;;;;;;;;;19.72;59.62;99241.81;2059001;28;19943;-50
2022/10/02 01:44:45;;;;;;;;;;;;;;;19.73;59.63;99231.91;2059001;28;19926;-54
2022/10/02 01:45:58;;;;;;;;;;;;;;;19.73;59.81;99231.91;2057178;28;19921;-49
2022/10/02 01:47:01;;;;;;;;;;;;;;;19.73;59.82;99240.81;2056783;28;20028;-50
2022/10/02 01:48:10;;;;;;;;;;;;;;;19.73;60.04;99242.66;2054352;28;20640;-53
2022/10/02 01:49:17;;;;;;;;;;;;;;;19.72;60.05;99236.44;2054025;28;19926;-50
2022/10/02 01:50:26;;;;;;;;;;;;;;;19.73;59.66;99234.59;2052632;28;19969;-55
2022/10/02 01:51:34;;;;;;;;;;;;;;;19.73;59.93;99238.09;2054579;28;20537;-51
2022/10/02 01:52:43;;;;;;;;;;;;;;;19.72;59.96;99230.22;2053217;28;20670;-53
2022/10/02 01:53:47;;;;;;;;;;;;;;;19.71;59.92;99234.78;2057199;28;20028;-48
2022/10/02 01:55:02;;;;;;;;;;;;;;;19.73;59.87;99237.28;2060969;28;19921;-54
2022/10/02 01:56:11;;;;;;;;;;;;;;;19.72;59.96;99231.03;2059612;28;19926;-52
2022/10/02 01:57:18;;;;;;;;;;;;;;;19.72;59.63;99228.34;2058279;28;20376;-50
2022/10/02 01:58:23;;;;;;;;;;;;;;;19.72;59.72;99232.91;2054994;28;20017;-47
2022/10/02 01:59:31;;;;;;;;;;;;;;;19.73;59.74;99231.91;2056410;28;19926;-52
2022/10/02 02:00:40;;;;;;;;;;;;;;;19.72;59.79;99236.44;2056565;28;20525;-50
2022/10/02 02:01:45;;;;;;;;;;;;;;;19.71;59.95;99234.78;2054982;28;20006;-51
2022/10/02 02:02:50;;;;;;;;;;;;;;;19.71;59.62;99234.78;2055043;28;20604;-52
2022/10/02 02:03:54;;;;;;;;;;;;;;;19.72;59.80;99233.72;2056426;28;20016;-54
2022/10/02 02:04:58;;;;;;;;;;;;;;;19.72;59.78;99236.44;2056062;28;19925;-49
2022/10/02 02:06:02;;;;;;;;;;;;;;;19.73;59.89;99238.09;2053526;28;19961;-50
2022/10/02 02:07:06;;;;;;;;;;;;;;;19.72;59.82;99231.03;2056268;28;19937;-51
2022/10/02 02:08:09;;;;;;;;;;;;;;;19.72;59.66;99235.59;2054844;28;19933;-52
2022/10/02 02:09:15;;;;;;;;;;;;;;;19.72;59.93;99238.28;2056081;28;19926;-50
2022/10/02 02:10:22;;;;;;;;;;;;;;;19.72;59.96;99233.72;2058084;28;20376;-49
2022/10/02 02:11:24;;;;;;;;;;;;;;;19.72;59.83;99235.59;2055500;28;19929;-49
2022/10/02 02:12:32;;;;;;;;;;;;;;;19.71;59.92;99232.09;2055554;28;19926;-50
2022/10/02 02:13:34;;;;;;;;;;;;;;;19.72;59.99;99235.59;2052339;28;20000;-53
2022/10/02 02:14:38;;;;;;;;;;;;;;;19.73;60.02;99237.28;2052509;28;20009;-52
2022/10/02 02:15:41;;;;;;;;;;;;;;;19.72;59.67;99240.97;2055328;28;19933;-50
2022/10/02 02:16:44;;;;;;;;;;;;;;;19.72;59.78;99240.97;2053354;28;20903;-50
2022/10/02 02:17:48;;;;;;;;;;;;;;;19.72;60.00;99233.72;2054496;28;19922;-52
2022/10/02 02:18:53;;;;;;;;;;;;;;;19.71;59.79;99233.94;2051229;28;19926;-49
2022/10/02 02:19:58;;;;;;;;;;;;;;;19.70;59.94;99230.44;2054482;28;19922;-53
2022/10/02 02:21:03;;;;;;;;;;;;;;;19.72;59.94;99230.22;2050941;28;19922;-52
2022/10/02 02:22:06;;;;;;;;;;;;;;;19.71;59.78;99234.78;2053825;28;19930;-51
2022/10/02 02:23:11;;;;;;;;;;;;;;;19.72;60.07;99228.34;2050688;28;19973;-53
2022/10/02 02:24:14;;;;;;;;;;;;;;;19.70;59.81;99227.75;2053928;28;19929;-51
2022/10/02 02:25:18;;;;;;;;;;;;;;;19.71;59.85;99218.63;2055472;28;19969;-53
2022/10/02 02:26:20;;;;;;;;;;;;;;;19.71;59.75;99217.81;2053760;28;19929;-51
2022/10/02 02:27:24;;;;;;;;;;;;;;;19.70;59.69;99218.84;2054385;28;19929;-50
2022/10/02 02:28:27;;;;;;;;;;;;;;;19.70;60.04;99222.34;2054049;28;19926;-51
2022/10/02 02:29:31;;;;;;;;;;;;;;;19.71;59.85;99224.00;2054377;28;20348;-50
2022/10/02 02:30:35;;;;;;;;;;;;;;;19.71;59.73;99225.88;2056488;28;20519;-50
2022/10/02 02:31:39;;;;;;;;;;;;;;;19.71;59.81;99225.88;2053130;28;19933;-57
2022/10/02 02:32:43;;;;;;;;;;;;;;;19.70;59.81;99225.06;2048535;28;19970;-53
2022/10/02 02:33:46;;;;;;;;;;;;;;;19.70;59.62;99222.34;2055780;28;20372;-50
2022/10/02 02:34:49;;;;;;;;;;;;;;;19.70;59.80;99227.75;2053843;28;19985;-54
2022/10/02 02:35:53;;;;;;;;;;;;;;;19.70;59.76;99219.66;2054183;28;19981;-48
2022/10/02 02:36:56;;;;;;;;;;;;;;;19.69;59.76;99220.69;2049514;28;19933;-53
2022/10/02 02:38:01;;;;;;;;;;;;;;;19.69;59.70;99223.38;2054595;28;19972;-53
2022/10/02 02:39:04;;;;;;;;;;;;;;;19.70;59.96;99227.75;2052056;28;20331;-48
2022/10/02 02:40:08;;;;;;;;;;;;;;;19.71;59.80;99224.00;2053636;28;19926;-55
2022/10/02 02:41:13;;;;;;;;;;;;;;;19.71;59.91;99229.41;2055685;28;20388;-52
2022/10/02 02:42:15;;;;;;;;;;;;;;;19.70;59.98;99221.53;2051322;28;20519;-52
2022/10/02 02:43:21;;;;;;;;;;;;;;;19.69;59.75;99220.69;2054074;28;19926;-53
2022/10/02 02:44:24;;;;;;;;;;;;;;;19.70;59.85;99229.59;2056825;28;19921;-47
2022/10/02 02:45:29;;;;;;;;;;;;;;;19.71;59.87;99225.88;2056805;28;19926;-53
2022/10/02 02:46:32;;;;;;;;;;;;;;;19.70;59.68;99224.22;2050409;28;20570;-53
2022/10/02 02:47:39;;;;;;;;;;;;;;;19.69;60.05;99227.91;2050354;28;19949;-52
2022/10/02 02:48:42;;;;;;;;;;;;;;;19.70;60.00;99225.06;2052012;28;20609;-56
2022/10/02 02:49:49;;;;;;;;;;;;;;;19.70;59.84;99227.75;2054837;28;19922;-50
2022/10/02 02:50:52;;;;;;;;;;;;;;;19.70;59.66;99230.44;2043829;28;19976;-52
2022/10/02 02:51:55;;;;;;;;;;;;;;;19.70;59.75;99230.44;2049468;28;19981;-49
2022/10/02 02:52:57;;;;;;;;;;;;;;;19.70;59.84;99233.13;2051254;28;19934;-51
2022/10/02 02:54:03;;;;;;;;;;;;;;;19.70;60.01;99230.44;2055179;28;20046;-49
2022/10/02 02:55:05;;;;;;;;;;;;;;;19.68;59.92;99229.78;2052810;28;19976;-49
2022/10/02 02:56:09;;;;;;;;;;;;;;;19.69;60.00;99225.22;2053681;28;19932;-52
2022/10/02 02:57:11;;;;;;;;;;;;;;;19.69;60.07;99233.31;2052566;28;19922;-50
2022/10/02 02:58:17;;;;;;;;;;;;;;;19.71;59.61;99223.19;2050936;28;19926;-48
2022/10/02 02:59:21;;;;;;;;;;;;;;;19.69;59.96;99226.06;2050918;28;19925;-49
2022/10/02 03:00:24;;;;;;;;;;;;;;;19.70;60.12;99233.13;2053308;28;20419;-49
2022/10/02 03:01:25;;;;;;;;;;;;;;;19.70;59.87;99225.06;2050183;28;19922;-48
2022/10/02 03:02:26;;;;;;;;;;;;;;;19.71;60.00;99229.41;2048912;28;19926;-49
2022/10/02 03:03:27;;;;;;;;;;;;;;;19.69;60.12;99228.75;2053345;28;19925;-50
2022/10/02 03:04:28;;;;;;;;;;;;;;;19.69;60.04;99220.69;2053926;28;19979;-50
2022/10/02 03:05:29;;;;;;;;;;;;;;;19.70;59.75;99230.44;2053938;28;19926;-48
2022/10/02 03:06:36;;;;;;;;;;;;;;;19.70;60.00;99233.13;2050961;28;20474;-49
2022/10/02 03:07:37;;;;;;;;;;;;;;;19.69;59.79;99228.75;2052957;28;19926;-51
2022/10/02 03:08:38;;;;;;;;;;;;;;;19.69;60.03;99226.06;2046593;28;19984;-48
2022/10/02 03:09:39;;;;;;;;;;;;;;;19.69;60.03;99223.38;2055217;28;20012;-49
2022/10/02 03:10:47;;;;;;;;;;;;;;;19.69;59.65;99220.69;2053261;28;20454;-52
2022/10/02 03:11:52;;;;;;;;;;;;;;;19.69;59.89;99230.63;2051479;28;20418;-49
2022/10/02 03:12:58;;;;;;;;;;;;;;;19.69;59.92;99227.91;2053043;28;20013;-51
2022/10/02 03:14:04;;;;;;;;;;;;;;;19.68;60.08;99232.47;2056237;28;20386;-48
2022/10/02 03:15:15;;;;;;;;;;;;;;;19.70;59.79;99237.69;2058502;28;20018;-48
2022/10/02 03:16:21;;;;;;;;;;;;;;;19.70;59.78;99221.53;2056180;28;19937;-48
2022/10/02 03:17:28;;;;;;;;;;;;;;;19.70;59.68;99235.81;2055266;28;19962;-48
2022/10/02 03:18:38;;;;;;;;;;;;;;;19.69;59.79;99233.31;2056933;28;20470;-49
2022/10/02 03:19:42;;;;;;;;;;;;;;;19.69;59.78;99227.91;2056873;28;19969;-50
2022/10/02 03:20:48;;;;;;;;;;;;;;;19.70;59.61;99218.84;2057827;28;19921;-47
2022/10/02 03:21:54;;;;;;;;;;;;;;;19.68;59.81;99220.88;2058118;28;19972;-51
2022/10/02 03:23:00;;;;;;;;;;;;;;;19.70;59.97;99225.06;2056071;28;19968;-48
2022/10/02 03:24:06;;;;;;;;;;;;;;;19.69;59.73;99226.06;2055657;28;19922;-47
2022/10/02 03:25:12;;;;;;;;;;;;;;;19.70;60.00;99227.75;2049177;28;19932;-48
2022/10/02 03:26:18;;;;;;;;;;;;;;;19.70;59.92;99227.75;2052558;28;19922;-48
2022/10/02 03:27:22;;;;;;;;;;;;;;;19.71;60.01;99231.25;2056388;28;20499;-48
2022/10/02 03:28:26;;;;;;;;;;;;;;;19.70;60.00;99230.44;2053911;28;20045;-48
2022/10/02 03:29:29;;;;;;;;;;;;;;;19.67;59.78;99225.44;2049851;28;20343;-47
2022/10/02 03:30:33;;;;;;;;;;;;;;;19.70;59.94;99232.31;2052232;28;19922;-46
2022/10/02 03:31:34;;;;;;;;;;;;;;;19.70;59.93;99230.44;2054172;28;20016;-48
2022/10/02 03:32:36;;;;;;;;;;;;;;;19.69;60.01;99226.06;2051002;28;19970;-47
2022/10/02 03:33:38;;;;;;;;;;;;;;;19.69;59.81;99230.63;2058518;28;19930;-47
2022/10/02 03:34:40;;;;;;;;;;;;;;;19.69;59.96;99228.75;2056747;28;20514;-48
2022/10/02 03:35:41;;;;;;;;;;;;;;;19.68;59.75;99232.47;2054895;28;20021;-47
2022/10/02 03:36:42;;;;;;;;;;;;;;;19.69;59.96;99226.06;2056457;28;19973;-49
2022/10/02 03:37:44;;;;;;;;;;;;;;;19.69;60.07;99231.44;2056331;28;20285;-49
2022/10/02 03:38:46;;;;;;;;;;;;;;;19.69;60.03;99228.75;2059166;28;20360;-49
2022/10/02 03:39:48;;;;;;;;;;;;;;;19.69;59.84;99231.44;2057273;28;19929;-49
2022/10/02 03:40:51;;;;;;;;;;;;;;;19.69;59.81;99233.31;2058937;28;20287;-47
2022/10/02 03:41:52;;;;;;;;;;;;;;;19.69;59.95;99238.69;2053704;28;19929;-48
2022/10/02 03:42:57;;;;;;;;;;;;;;;19.69;60.01;99236.81;2057038;28;20020;-48
2022/10/02 03:43:57;;;;;;;;;;;;;;;19.70;59.89;99232.31;2053679;28;20124;-49
2022/10/02 03:44:59;;;;;;;;;;;;;;;19.70;59.87;99230.44;2054999;28;19922;-48
2022/10/02 03:46:01;;;;;;;;;;;;;;;19.69;60.06;99231.44;2057151;28;19984;-48
2022/10/02 03:47:02;;;;;;;;;;;;;;;19.69;59.69;99234.13;2055716;28;20576;-47
2022/10/02 03:48:03;;;;;;;;;;;;;;;19.68;60.00;99227.09;2050857;28;19925;-49
2022/10/02 03:49:04;;;;;;;;;;;;;;;19.68;59.70;99235.16;2050573;28;19922;-48
2022/10/02 03:50:05;;;;;;;;;;;;;;;19.69;59.83;99241.38;2054946;28;20372;-48
2022/10/02 03:51:06;;;;;;;;;;;;;;;19.67;60.13;99238.91;2055793;28;19930;-49
2022/10/02 03:52:12;;;;;;;;;;;;;;;19.68;59.89;99242.41;2054840;28;19925;-48
2022/10/02 03:53:15;;;;;;;;;;;;;;;19.69;59.85;99241.38;2054553;28;19928;-49
2022/10/02 03:54:16;;;;;;;;;;;;;;;19.68;59.81;99243.25;2057111;28;19975;-47
2022/10/02 03:55:31;;;;;;;;;;;;;;;19.69;59.99;99241.38;2056366;28;20058;-46
2022/10/02 03:56:35;;;;;;;;;;;;;;;19.69;59.78;99252.16;2057713;28;20545;-49
2022/10/02 03:57:37;;;;;;;;;;;;;;;19.69;60.09;99246.75;2055740;28;19922;-48
2022/10/02 03:58:40;;;;;;;;;;;;;;;19.67;60.01;99243.44;2057737;28;20492;-48
2022/10/02 03:59:44;;;;;;;;;;;;;;;19.67;59.88;99238.91;2058386;28;19926;-50
2022/10/02 04:00:51;;;;;;;;;;;;;;;19.68;59.69;99243.25;2056742;28;19921;-49
2022/10/02 04:01:55;;;;;;;;;;;;;;;19.67;60.15;99243.44;2055328;28;20372;-49
2022/10/02 04:02:57;;;;;;;;;;;;;;;19.69;59.93;99242.22;2054867;28;19922;-47
2022/10/02 04:04:01;;;;;;;;;;;;;;;19.68;59.89;99243.25;2058628;28;20757;-48
2022/10/02 04:05:05;;;;;;;;;;;;;;;19.68;59.97;99239.72;2056984;28;19922;-47
2022/10/02 04:06:12;;;;;;;;;;;;;;;19.68;60.04;99248.63;2055766;28;19930;-47
2022/10/02 04:07:17;;;;;;;;;;;;;;;19.68;60.00;99245.09;2057662;28;20048;-48
2022/10/02 04:08:20;;;;;;;;;;;;;;;19.67;59.87;99244.28;2057029;28;19922;-47
2022/10/02 04:09:22;;;;;;;;;;;;;;;19.68;59.80;99245.09;2056472;28;19968;-48
2022/10/02 04:10:32;;;;;;;;;;;;;;;19.68;59.78;99242.41;2057468;28;20013;-48
2022/10/02 04:11:34;;;;;;;;;;;;;;;19.67;59.99;99241.59;2059038;28;19975;-49
2022/10/02 04:12:38;;;;;;;;;;;;;;;19.68;59.73;99239.72;2058550;28;20289;-47
2022/10/02 04:13:41;;;;;;;;;;;;;;;19.68;60.03;99245.09;2057949;28;19921;-48
2022/10/02 04:14:46;;;;;;;;;;;;;;;19.67;59.74;99243.44;2055047;28;20002;-50
2022/10/02 04:15:52;;;;;;;;;;;;;;;19.67;59.85;99243.44;2054818;28;20434;-48
2022/10/02 04:17:01;;;;;;;;;;;;;;;19.68;60.03;99245.09;2057145;28;20387;-51
2022/10/02 04:18:03;;;;;;;;;;;;;;;19.67;60.05;99244.28;2057128;28;19926;-48
2022/10/02 04:19:09;;;;;;;;;;;;;;;19.65;60.02;99243.59;2056237;28;20242;-50
2022/10/02 04:20:14;;;;;;;;;;;;;;;19.65;60.15;99230.16;2058719;28;19922;-49
2022/10/02 04:21:19;;;;;;;;;;;;;;;19.65;59.66;99235.53;2055030;28;20368;-47
2022/10/02 04:22:23;;;;;;;;;;;;;;;19.66;60.13;99237.22;2053899;28;19930;-48
2022/10/02 04:23:27;;;;;;;;;;;;;;;19.65;60.18;99232.84;2056861;28;19947;-48
2022/10/02 04:24:30;;;;;;;;;;;;;;;19.66;60.14;99239.91;2053971;28;19922;-49
2022/10/02 04:25:34;;;;;;;;;;;;;;;19.67;60.12;99243.44;2057370;28;20415;-49
2022/10/02 04:26:36;;;;;;;;;;;;;;;19.67;60.02;99233.53;2055633;28;19930;-47
2022/10/02 04:27:40;;;;;;;;;;;;;;;19.67;59.84;99238.91;2057076;28;19932;-48
2022/10/02 04:28:43;;;;;;;;;;;;;;;19.66;59.84;99239.91;2059811;28;19929;-49
2022/10/02 04:29:47;;;;;;;;;;;;;;;19.68;60.08;99231.66;2056120;28;19926;-47
2022/10/02 04:30:50;;;;;;;;;;;;;;;19.67;59.80;99224.59;2056426;28;20458;-50
2022/10/02 04:31:53;;;;;;;;;;;;;;;19.68;59.96;99235.16;2052194;28;19930;-49
2022/10/02 04:32:55;;;;;;;;;;;;;;;19.67;59.99;99235.34;2056192;28;20024;-49
2022/10/02 04:34:00;;;;;;;;;;;;;;;19.67;59.84;99233.53;2057577;28;19976;-47
2022/10/02 04:35:05;;;;;;;;;;;;;;;19.67;59.68;99233.53;2052924;28;20539;-49
2022/10/02 04:36:12;;;;;;;;;;;;;;;19.65;60.07;99232.84;2055196;28;19926;-49
2022/10/02 04:37:24;;;;;;;;;;;;;;;19.65;59.86;99230.16;2056161;28;19948;-50
2022/10/02 04:38:36;;;;;;;;;;;;;;;19.65;59.84;99230.16;2055108;28;19929;-49
2022/10/02 04:39:53;;;;;;;;;;;;;;;19.66;59.80;99239.09;2054040;28;20429;-47
2022/10/02 04:41:00;;;;;;;;;;;;;;;19.66;60.01;99233.69;2057085;28;19925;-49
2022/10/02 04:42:09;;;;;;;;;;;;;;;19.66;59.72;99236.41;2051417;28;20451;-48
2022/10/02 04:43:16;;;;;;;;;;;;;;;19.65;60.12;99243.59;2057339;28;19925;-48
2022/10/02 04:44:25;;;;;;;;;;;;;;;19.66;59.92;99239.09;2054611;28;19962;-48
2022/10/02 04:45:35;;;;;;;;;;;;;;;19.66;60.13;99237.22;2056120;28;19982;-48
2022/10/02 04:46:51;;;;;;;;;;;;;;;19.66;59.89;99239.91;2056868;28;19926;-48
2022/10/02 04:48:09;;;;;;;;;;;;;;;19.66;59.85;99241.78;2053922;28;19933;-47
2022/10/02 04:49:26;;;;;;;;;;;;;;;19.66;59.93;99236.41;2056582;28;19922;-48
2022/10/02 04:50:36;;;;;;;;;;;;;;;19.66;59.84;99242.59;2052087;28;20422;-47
2022/10/02 04:51:46;;;;;;;;;;;;;;;19.66;60.04;99250.66;2057420;28;19925;-49
2022/10/02 04:52:57;;;;;;;;;;;;;;;19.66;60.02;99242.59;2055532;28;20300;-49
2022/10/02 04:54:07;;;;;;;;;;;;;;;19.66;60.13;99249.84;2051864;28;19926;-48
2022/10/02 04:55:17;;;;;;;;;;;;;;;19.67;59.79;99241.59;2051543;28;19950;-48
2022/10/02 04:56:36;;;;;;;;;;;;;;;19.67;59.73;99243.44;2057107;28;19925;-48
2022/10/02 04:57:54;;;;;;;;;;;;;;;19.66;59.95;99245.28;2059351;28;19933;-48
2022/10/02 04:59:07;;;;;;;;;;;;;;;19.66;59.83;99247.16;2057457;28;19937;-48
2022/10/02 05:00:10;;;;;;;;;;;;;;;19.65;59.91;99246.28;2056315;28;20663;-50
2022/10/02 05:01:15;;;;;;;;;;;;;;;19.66;59.89;99244.47;2051618;28;20089;-49
2022/10/02 05:02:23;;;;;;;;;;;;;;;19.64;59.85;99250.84;2054261;28;19929;-49
2022/10/02 05:03:34;;;;;;;;;;;;;;;19.66;59.99;99249.84;2054728;28;19929;-49
2022/10/02 05:04:47;;;;;;;;;;;;;;;19.66;60.06;99247.97;2056079;28;20008;-47
2022/10/02 05:05:57;;;;;;;;;;;;;;;19.65;60.12;99249.00;2051915;28;20236;-50
2022/10/02 05:07:06;;;;;;;;;;;;;;;19.65;59.73;99249.00;2052690;28;19930;-52
2022/10/02 05:08:18;;;;;;;;;;;;;;;19.68;60.08;99255.88;2055473;28;20005;-49
2022/10/02 05:09:24;;;;;;;;;;;;;;;19.66;60.01;99255.22;2059625;28;19948;-48
2022/10/02 05:10:43;;;;;;;;;;;;;;;19.65;60.06;99259.75;2053834;28;19936;-48
2022/10/02 05:12:02;;;;;;;;;;;;;;;19.66;60.02;99266.81;2053931;28;19996;-51
2022/10/02 05:13:06;;;;;;;;;;;;;;;19.64;59.98;99250.84;2052186;28;19929;-50
2022/10/02 05:14:24;;;;;;;;;;;;;;;19.64;60.00;99250.03;2054975;28;19922;-50
2022/10/02 05:15:34;;;;;;;;;;;;;;;19.64;59.87;99253.53;2053710;28;19929;-48
2022/10/02 05:16:43;;;;;;;;;;;;;;;19.64;60.03;99250.03;2054246;28;20021;-51
2022/10/02 05:17:50;;;;;;;;;;;;;;;19.64;60.08;99256.22;2055854;28;19995;-49
2022/10/02 05:18:59;;;;;;;;;;;;;;;19.65;59.99;99262.44;2055317;28;19973;-49
2022/10/02 05:20:10;;;;;;;;;;;;;;;19.65;59.69;99257.06;2055744;28;19980;-48
2022/10/02 05:21:22;;;;;;;;;;;;;;;19.64;59.95;99255.41;2051445;28;19922;-48
2022/10/02 05:22:37;;;;;;;;;;;;;;;19.64;59.67;99258.94;2053483;28;20388;-51
2022/10/02 05:23:45;;;;;;;;;;;;;;;19.64;59.84;99256.22;2053795;28;20313;-48
2022/10/02 05:24:53;;;;;;;;;;;;;;;19.65;60.20;99257.06;2054667;28;19933;-48
2022/10/02 05:26:02;;;;;;;;;;;;;;;19.66;59.74;99260.63;2051646;28;20430;-50
2022/10/02 05:27:07;;;;;;;;;;;;;;;19.64;60.19;99253.53;2051496;28;20443;-49
2022/10/02 05:28:22;;;;;;;;;;;;;;;19.64;60.02;99252.72;2054872;28;20455;-48
2022/10/02 05:29:30;;;;;;;;;;;;;;;19.65;60.12;99259.75;2055920;28;20017;-48
2022/10/02 05:30:36;;;;;;;;;;;;;;;19.65;60.08;99262.44;2051216;28;20048;-47
2022/10/02 05:31:45;;;;;;;;;;;;;;;19.65;60.17;99267.81;2052433;28;19994;-49
2022/10/02 05:32:56;;;;;;;;;;;;;;;19.67;60.13;99268.50;2052661;28;19925;-49
2022/10/02 05:34:05;;;;;;;;;;;;;;;19.64;60.04;99267.00;2053714;28;19972;-49
2022/10/02 05:35:15;;;;;;;;;;;;;;;19.64;60.01;99274.25;2054433;28;19930;-50
2022/10/02 05:36:34;;;;;;;;;;;;;;;19.64;59.85;99263.47;2048586;28;19922;-50
2022/10/02 05:37:46;;;;;;;;;;;;;;;19.65;60.00;99270.53;2048215;28;20191;-48
2022/10/02 05:38:54;;;;;;;;;;;;;;;19.63;60.01;99268.00;2050902;28;21164;-50
2022/10/02 05:40:01;;;;;;;;;;;;;;;19.65;59.86;99283.97;2054186;28;20368;-48
2022/10/02 05:41:02;;;;;;;;;;;;;;;19.65;59.93;99278.59;2053669;28;19922;-51
2022/10/02 05:42:10;;;;;;;;;;;;;;;19.63;59.83;99275.25;2056021;28;20785;-48